createdAt,value
2023-03-05T00:02:24.564Z,100787.63
2023-03-05T00:04:51.319Z,100792.63
2023-03-05T00:07:17.944Z,100794.38
2023-03-05T00:09:44.611Z,100794.48
2023-03-05T00:12:11.288Z,100792.12
2023-03-05T00:14:38.010Z,100788.48
2023-03-05T00:17:04.719Z,100792.63
2023-03-05T00:19:31.317Z,100786.71
2023-03-05T00:21:58.072Z,100787.67
2023-03-05T00:24:24.657Z,100783.07
2023-03-05T00:26:51.378Z,100780.55
2023-03-05T00:29:19.022Z,100779.30
2023-03-05T00:31:46.305Z,100774.60
2023-03-05T00:34:15.357Z,100775.57
2023-03-05T00:36:43.956Z,100774.81
2023-03-05T00:39:12.240Z,100775.79
2023-03-05T00:41:39.264Z,100776.66
2023-03-05T00:44:06.276Z,100773.30
2023-03-05T00:46:33.262Z,100774.53
2023-03-05T00:48:59.966Z,100773.45
2023-03-05T00:51:26.622Z,100774.42
2023-03-05T00:53:53.527Z,100771.75
2023-03-05T00:56:20.560Z,100771.23
2023-03-05T00:58:47.627Z,100770.87
2023-03-05T01:01:14.686Z,100770.06
2023-03-05T01:03:41.671Z,100770.56
2023-03-05T01:06:11.735Z,100770.27
2023-03-05T01:08:39.249Z,100769.98
2023-03-05T01:11:06.932Z,100769.71
2023-03-05T01:13:33.796Z,100768.83
2023-03-05T01:16:01.091Z,100766.56
2023-03-05T01:18:27.820Z,100767.96
2023-03-05T01:20:54.484Z,100767.61
2023-03-05T01:23:21.169Z,100761.89
2023-03-05T01:25:57.358Z,100766.40
2023-03-05T01:28:24.515Z,100762.63
2023-03-05T01:30:51.313Z,100761.22
2023-03-05T01:33:18.338Z,100763.29
2023-03-05T01:35:49.151Z,100761.59
2023-03-05T01:38:16.736Z,100761.47
2023-03-05T01:40:43.966Z,100757.94
2023-03-05T01:43:12.193Z,100756.87
2023-03-05T01:46:00.107Z,100756.91
2023-03-05T01:48:27.639Z,100750.83
2023-03-05T01:50:54.521Z,100746.70
2023-03-05T01:53:21.218Z,100744.37
2023-03-05T01:55:48.048Z,100744.93
2023-03-05T01:58:14.856Z,100742.39
2023-03-05T02:00:46.182Z,100745.27
2023-03-05T02:03:13.706Z,100744.10
2023-03-05T02:05:43.351Z,100744.11
2023-03-05T02:08:12.526Z,100739.80
2023-03-05T02:10:45.122Z,100738.91
2023-03-05T02:13:15.238Z,100738.45
2023-03-05T02:15:42.628Z,100737.73
2023-03-05T02:18:10.191Z,100736.98
2023-03-05T02:20:46.609Z,100736.15
2023-03-05T02:23:14.360Z,100730.77
2023-03-05T02:25:41.382Z,100733.71
2023-03-05T02:28:23.142Z,100726.45
2023-03-05T02:30:49.965Z,100724.08
2023-03-05T02:33:18.114Z,100723.95
2023-03-05T02:35:46.400Z,100719.30
2023-03-05T02:38:15.407Z,100715.96
2023-03-05T02:40:42.470Z,100719.14
2023-03-05T02:43:09.837Z,100718.59
2023-03-05T02:45:37.591Z,100719.34
2023-03-05T02:48:04.625Z,100713.73
2023-03-05T02:50:32.167Z,100711.20
2023-03-05T02:52:59.057Z,100706.91
2023-03-05T02:55:25.966Z,100703.76
2023-03-05T02:57:52.708Z,100705.55
2023-03-05T03:00:19.688Z,100703.84
2023-03-05T03:02:46.371Z,100702.50
2023-03-05T03:05:13.127Z,100701.52
2023-03-05T03:07:39.831Z,100696.97
2023-03-05T03:10:07.217Z,100696.16
2023-03-05T03:12:41.831Z,100697.33
2023-03-05T03:15:09.740Z,100702.23
2023-03-05T03:17:37.404Z,100701.14
2023-03-05T03:20:06.157Z,100698.48
2023-03-05T03:22:33.197Z,100694.15
2023-03-05T03:25:01.138Z,100694.38
2023-03-05T03:27:27.831Z,100694.40
2023-03-05T03:29:54.426Z,100694.23
2023-03-05T03:32:21.193Z,100696.51
2023-03-05T03:34:48.343Z,100690.05
2023-03-05T03:37:15.357Z,100689.75
2023-03-05T03:39:42.104Z,100687.81
2023-03-05T03:42:08.777Z,100683.31
2023-03-05T03:44:35.392Z,100683.77
2023-03-05T03:47:02.154Z,100680.10
2023-03-05T03:49:28.916Z,100679.34
2023-03-05T03:51:55.674Z,100680.00
2023-03-05T03:54:22.475Z,100680.89
2023-03-05T03:56:49.364Z,100679.92
2023-03-05T03:59:16.121Z,100676.12
2023-03-05T04:01:43.205Z,100674.41
2023-03-05T04:04:12.422Z,100674.77
2023-03-05T04:06:39.594Z,100677.13
2023-03-05T04:09:08.221Z,100680.05
2023-03-05T04:11:36.403Z,100678.19
2023-03-05T04:14:04.029Z,100680.46
2023-03-05T04:16:31.239Z,100676.89
2023-03-05T04:18:57.962Z,100678.63
2023-03-05T04:21:24.631Z,100671.75
2023-03-05T04:23:51.214Z,100673.99
2023-03-05T04:26:17.892Z,100676.50
2023-03-05T04:28:48.382Z,100672.73
2023-03-05T04:31:15.222Z,100670.39
2023-03-05T04:33:42.043Z,100671.34
2023-03-05T04:36:09.146Z,100664.52
2023-03-05T04:38:35.761Z,100666.83
2023-03-05T04:41:02.342Z,100664.48
2023-03-05T04:43:29.019Z,100661.71
2023-03-05T04:45:56.065Z,100661.05
2023-03-05T04:48:22.884Z,100659.25
2023-03-05T04:50:49.678Z,100660.64
2023-03-05T04:53:16.421Z,100662.31
2023-03-05T04:55:43.911Z,100658.15
2023-03-05T04:58:10.691Z,100660.42
2023-03-05T05:00:37.393Z,100656.64
2023-03-05T05:03:04.250Z,100656.81
2023-03-05T05:05:30.985Z,100657.83
2023-03-05T05:07:58.717Z,100659.66
2023-03-05T05:10:26.773Z,100654.38
2023-03-05T05:12:53.839Z,100654.39
2023-03-05T05:15:20.847Z,100659.03
2023-03-05T05:17:47.766Z,100656.52
2023-03-05T05:20:16.632Z,100656.81
2023-03-05T05:22:44.000Z,100653.29
2023-03-05T05:25:11.071Z,100655.13
2023-03-05T05:27:39.707Z,100657.85
2023-03-05T05:30:07.709Z,100657.29
2023-03-05T05:32:34.555Z,100658.37
2023-03-05T05:35:01.687Z,100655.06
2023-03-05T05:37:29.969Z,100654.64
2023-03-05T05:39:56.657Z,100654.02
2023-03-05T05:42:24.301Z,100656.66
2023-03-05T05:44:51.251Z,100659.34
2023-03-05T05:47:18.791Z,100657.27
2023-03-05T05:49:45.733Z,100661.98
2023-03-05T05:52:13.295Z,100660.77
2023-03-05T05:54:40.169Z,100666.33
2023-03-05T05:57:07.679Z,100664.38
2023-03-05T05:59:34.569Z,100666.41
2023-03-05T06:02:01.325Z,100672.37
2023-03-05T06:04:28.020Z,100672.75
2023-03-05T06:06:54.679Z,100671.73
2023-03-05T06:09:21.384Z,100676.83
2023-03-05T06:11:48.039Z,100680.54
2023-03-05T06:14:14.769Z,100686.91
2023-03-05T06:16:41.703Z,100689.98
2023-03-05T06:19:11.681Z,100692.57
2023-03-05T06:21:38.961Z,100689.07
2023-03-05T06:24:06.229Z,100694.27
2023-03-05T06:26:33.452Z,100694.72
2023-03-05T06:29:00.401Z,100695.38
2023-03-05T06:31:28.739Z,100698.21
2023-03-05T06:33:58.149Z,100694.92
2023-03-05T06:36:25.767Z,100694.61
2023-03-05T06:38:53.646Z,100701.56
2023-03-05T06:41:23.334Z,100698.73
2023-03-05T06:43:50.305Z,100700.86
2023-03-05T06:46:25.723Z,100696.81
2023-03-05T06:48:55.693Z,100702.69
2023-03-05T06:51:25.565Z,100703.20
2023-03-05T06:53:54.150Z,100695.85
2023-03-05T06:56:21.251Z,100699.29
2023-03-05T06:58:50.631Z,100699.67
2023-03-05T07:01:17.638Z,100700.44
2023-03-05T07:03:44.867Z,100699.05
2023-03-05T07:06:14.094Z,100700.08
2023-03-05T07:08:40.788Z,100702.08
2023-03-05T07:11:16.911Z,100698.31
2023-03-05T07:13:43.972Z,100701.10
2023-03-05T07:16:15.551Z,100700.67
2023-03-05T07:18:42.350Z,100694.80
2023-03-05T07:21:13.081Z,100696.49
2023-03-05T07:23:39.827Z,100694.69
2023-03-05T07:26:07.105Z,100697.88
2023-03-05T07:28:34.803Z,100701.72
2023-03-05T07:31:04.933Z,100699.80
2023-03-05T07:33:32.381Z,100699.92
2023-03-05T07:35:59.599Z,100696.11
2023-03-05T07:38:26.335Z,100699.59
2023-03-05T07:40:53.248Z,100698.41
2023-03-05T07:43:19.865Z,100701.11
2023-03-05T07:45:46.564Z,100696.77
2023-03-05T07:48:16.753Z,100699.66
2023-03-05T07:50:44.294Z,100699.60
2023-03-05T07:53:11.540Z,100700.59
2023-03-05T07:55:47.724Z,100701.10
2023-03-05T07:58:14.646Z,100701.35
2023-03-05T08:00:41.326Z,100699.04
2023-03-05T08:03:08.261Z,100702.86
2023-03-05T08:05:35.182Z,100698.42
2023-03-05T08:08:01.818Z,100695.49
2023-03-05T08:10:28.358Z,100696.44
2023-03-05T08:12:55.088Z,100695.73
2023-03-05T08:15:21.827Z,100694.50
2023-03-05T08:17:48.607Z,100695.39
2023-03-05T08:20:15.306Z,100692.61
2023-03-05T08:22:42.048Z,100687.20
2023-03-05T08:25:10.045Z,100681.66
2023-03-05T08:27:41.048Z,100679.92
2023-03-05T08:30:10.891Z,100680.27
2023-03-05T08:32:37.772Z,100678.06
2023-03-05T08:35:06.739Z,100673.45
2023-03-05T08:37:33.721Z,100677.05
2023-03-05T08:40:00.500Z,100665.89
2023-03-05T08:42:27.289Z,100667.52
2023-03-05T08:44:54.039Z,100668.59
2023-03-05T08:47:20.782Z,100666.48
2023-03-05T08:49:47.604Z,100665.35
2023-03-05T08:52:14.310Z,100668.75
2023-03-05T08:54:41.042Z,100667.15
2023-03-05T08:57:08.585Z,100670.38
2023-03-05T08:59:35.888Z,100666.84
2023-03-05T09:02:03.219Z,100662.95
2023-03-05T09:04:30.056Z,100662.05
2023-03-05T09:06:57.583Z,100661.79
2023-03-05T09:09:24.809Z,100664.69
2023-03-05T09:11:52.087Z,100661.68
2023-03-05T09:14:19.014Z,100664.55
2023-03-05T09:16:45.883Z,100666.28
2023-03-05T09:19:15.352Z,100661.21
2023-03-05T09:21:42.486Z,100663.20
2023-03-05T09:24:09.300Z,100662.98
2023-03-05T09:26:36.015Z,100663.67
2023-03-05T09:29:03.511Z,100664.84
2023-03-05T09:31:30.311Z,100653.15
2023-03-05T09:33:57.059Z,100652.91
2023-03-05T09:36:29.534Z,100646.38
2023-03-05T09:38:56.485Z,100647.59
2023-03-05T09:41:32.491Z,100648.23
2023-03-05T09:43:59.477Z,100647.00
2023-03-05T09:46:31.916Z,100644.55
2023-03-05T09:49:12.300Z,100642.83
2023-03-05T09:51:41.464Z,100637.81
2023-03-05T09:54:17.517Z,100636.09
2023-03-05T09:57:05.670Z,100637.30
2023-03-05T10:00:02.011Z,100633.16
2023-03-05T10:02:48.983Z,100632.73
2023-03-05T10:05:26.280Z,100631.75
2023-03-05T10:08:03.842Z,100632.27
2023-03-05T10:10:42.154Z,100632.25
2023-03-05T10:13:32.486Z,100632.61
2023-03-05T10:16:42.320Z,100625.79
2023-03-05T10:19:36.842Z,100627.88
2023-03-05T10:22:31.037Z,100619.75
2023-03-05T10:25:09.757Z,100615.81
2023-03-05T10:27:43.452Z,100610.36
2023-03-05T10:30:19.802Z,100609.27
2023-03-05T10:32:57.025Z,100609.42
2023-03-05T10:35:40.906Z,100607.32
2023-03-05T10:38:33.201Z,100608.14
2023-03-05T10:41:28.382Z,100604.92
2023-03-05T10:44:04.212Z,100600.39
2023-03-05T10:46:37.678Z,100599.18
2023-03-05T10:49:21.221Z,100595.89
2023-03-05T10:51:53.341Z,100594.19
2023-03-05T10:54:30.348Z,100592.17
2023-03-05T10:57:09.802Z,100587.38
2023-03-05T10:59:36.873Z,100581.95
2023-03-05T11:02:10.205Z,100579.89
2023-03-05T11:04:39.790Z,100575.08
2023-03-05T11:07:08.837Z,100576.23
2023-03-05T11:09:35.642Z,100568.94
2023-03-05T11:12:10.459Z,100566.47
2023-03-05T11:14:40.512Z,100562.65
2023-03-05T11:17:30.221Z,100562.86
2023-03-05T11:19:58.734Z,100559.98
2023-03-05T11:22:26.023Z,100554.08
2023-03-05T11:25:15.949Z,100550.40
2023-03-05T11:27:54.571Z,100545.86
2023-03-05T11:30:26.271Z,100543.40
2023-03-05T11:33:20.527Z,100536.09
2023-03-05T11:35:49.399Z,100532.02
2023-03-05T11:38:26.447Z,100526.00
2023-03-05T11:40:56.270Z,100524.37
2023-03-05T11:43:26.021Z,100519.78
2023-03-05T11:46:05.497Z,100517.45
2023-03-05T11:48:36.669Z,100509.24
2023-03-05T11:51:13.481Z,100501.03
2023-03-05T11:53:40.450Z,100499.50
2023-03-05T11:56:22.320Z,100499.27
2023-03-05T11:59:02.926Z,100495.46
2023-03-05T12:01:34.569Z,100492.22
2023-03-05T12:04:01.719Z,100486.77
2023-03-05T12:06:34.947Z,100481.79
2023-03-05T12:09:37.863Z,100477.14
2023-03-05T12:12:18.651Z,100467.53
2023-03-05T12:15:12.853Z,100466.52
2023-03-05T12:17:50.737Z,100462.15
2023-03-05T12:20:50.004Z,100461.34
2023-03-05T12:23:21.738Z,100446.59
2023-03-05T12:25:57.898Z,100445.88
2023-03-05T12:28:37.062Z,100442.20
2023-03-05T12:31:40.436Z,100436.73
2023-03-05T12:34:35.151Z,100431.06
2023-03-05T12:37:01.876Z,100420.84
2023-03-05T12:39:41.785Z,100419.07
2023-03-05T12:42:30.256Z,100416.74
2023-03-05T12:45:16.185Z,100413.42
2023-03-05T12:47:45.147Z,100405.63
2023-03-05T12:50:26.907Z,100406.23
2023-03-05T12:52:54.106Z,100400.88
2023-03-05T12:55:45.707Z,100393.70
2023-03-05T12:58:32.587Z,100392.17
2023-03-05T13:01:03.211Z,100386.36
2023-03-05T13:03:37.556Z,100381.33
2023-03-05T13:06:06.730Z,100378.52
2023-03-05T13:08:36.199Z,100381.16
2023-03-05T13:11:06.777Z,100384.70
2023-03-05T13:13:37.441Z,100379.91
2023-03-05T13:16:05.024Z,100376.15
2023-03-05T13:18:32.999Z,100370.73
2023-03-05T13:21:13.001Z,100369.72
2023-03-05T13:24:00.006Z,100367.57
2023-03-05T13:26:29.087Z,100366.23
2023-03-05T13:29:19.360Z,100357.27
2023-03-05T13:31:48.989Z,100355.70
2023-03-05T13:34:47.379Z,100352.09
2023-03-05T13:37:33.983Z,100353.70
2023-03-05T13:40:20.893Z,100352.02
2023-03-05T13:42:49.505Z,100348.89
2023-03-05T13:45:32.377Z,100349.05
2023-03-05T13:48:02.055Z,100345.30
2023-03-05T13:50:33.412Z,100343.19
2023-03-05T13:53:26.079Z,100341.25
2023-03-05T13:55:57.464Z,100338.91
2023-03-05T13:58:52.544Z,100336.64
2023-03-05T14:01:30.125Z,100335.20
2023-03-05T14:04:16.605Z,100336.80
2023-03-05T14:07:03.612Z,100333.59
2023-03-05T14:09:38.946Z,100331.05
2023-03-05T14:12:33.584Z,100326.36
2023-03-05T14:15:02.325Z,100323.33
2023-03-05T14:17:30.656Z,100314.55
2023-03-05T14:20:09.778Z,100311.13
2023-03-05T14:22:38.710Z,100308.63
2023-03-05T14:25:07.265Z,100307.09
2023-03-05T14:27:36.650Z,100301.27
2023-03-05T14:30:05.537Z,100299.80
2023-03-05T14:32:36.038Z,100295.15
2023-03-05T14:35:06.159Z,100295.48
2023-03-05T14:37:36.834Z,100294.00
2023-03-05T14:40:07.226Z,100287.48
2023-03-05T14:42:58.604Z,100283.55
2023-03-05T14:45:38.083Z,100282.77
2023-03-05T14:48:16.373Z,100278.78
2023-03-05T14:50:46.786Z,100278.12
2023-03-05T14:53:20.408Z,100276.09
2023-03-05T14:55:51.667Z,100270.95
2023-03-05T14:58:21.925Z,100269.90
2023-03-05T15:00:51.198Z,100268.14
2023-03-05T15:03:19.958Z,100265.87
2023-03-05T15:05:51.108Z,100261.17
2023-03-05T15:08:25.740Z,100262.88
2023-03-05T15:10:53.111Z,100256.36
2023-03-05T15:13:19.940Z,100257.52
2023-03-05T15:15:49.128Z,100254.03
2023-03-05T15:18:19.076Z,100252.98
2023-03-05T15:20:48.839Z,100249.23
2023-03-05T15:23:17.279Z,100248.21
2023-03-05T15:25:44.302Z,100248.82
2023-03-05T15:28:11.181Z,100246.98
2023-03-05T15:30:41.804Z,100245.55
2023-03-05T15:33:11.988Z,100243.38
2023-03-05T15:35:39.120Z,100246.80
2023-03-05T15:38:06.337Z,100239.45
2023-03-05T15:40:33.074Z,100241.00
2023-03-05T15:43:00.842Z,100235.51
2023-03-05T15:45:28.080Z,100234.91
2023-03-05T15:47:55.086Z,100233.26
2023-03-05T15:50:22.451Z,100231.98
2023-03-05T15:52:49.754Z,100230.24
2023-03-05T15:55:18.582Z,100233.27
2023-03-05T15:57:48.927Z,100237.17
2023-03-05T16:00:18.724Z,100230.41
2023-03-05T16:02:45.490Z,100229.02
2023-03-05T16:05:12.223Z,100225.08
2023-03-05T16:07:42.266Z,100225.20
2023-03-05T16:10:13.981Z,100220.15
2023-03-05T16:12:43.066Z,100214.73
2023-03-05T16:15:17.377Z,100216.61
2023-03-05T16:17:47.560Z,100217.52
2023-03-05T16:20:15.771Z,100214.56
2023-03-05T16:22:43.460Z,100219.48
2023-03-05T16:25:10.540Z,100221.15
2023-03-05T16:27:38.364Z,100222.38
2023-03-05T16:30:06.339Z,100221.40
2023-03-05T16:32:33.377Z,100216.02
2023-03-05T16:35:00.140Z,100216.39
2023-03-05T16:37:26.873Z,100210.12
2023-03-05T16:39:57.665Z,100207.48
2023-03-05T16:42:24.413Z,100206.05
2023-03-05T16:44:51.940Z,100211.08
2023-03-05T16:47:18.643Z,100208.95
2023-03-05T16:49:45.251Z,100208.64
2023-03-05T16:52:18.737Z,100209.98
2023-03-05T16:54:46.848Z,100206.90
2023-03-05T16:57:14.062Z,100207.62
2023-03-05T16:59:40.962Z,100205.99
2023-03-05T17:02:08.028Z,100205.13
2023-03-05T17:04:34.991Z,100203.39
2023-03-05T17:07:03.527Z,100205.08
2023-03-05T17:09:30.601Z,100206.81
2023-03-05T17:11:57.234Z,100206.67
2023-03-05T17:14:24.185Z,100214.82
2023-03-05T17:16:51.136Z,100217.09
2023-03-05T17:19:18.384Z,100220.38
2023-03-05T17:21:45.397Z,100223.77
2023-03-05T17:24:12.193Z,100231.28
2023-03-05T17:26:38.905Z,100224.77
2023-03-05T17:29:06.957Z,100224.86
2023-03-05T17:31:36.794Z,100226.35
2023-03-05T17:34:04.275Z,100235.55
2023-03-05T17:36:32.716Z,100236.54
2023-03-05T17:38:59.338Z,100241.30
2023-03-05T17:41:26.042Z,100244.30
2023-03-05T17:43:52.898Z,100250.45
2023-03-05T17:46:19.635Z,100250.40
2023-03-05T17:48:46.370Z,100253.94
2023-03-05T17:51:16.406Z,100254.36
2023-03-05T17:53:43.871Z,100257.17
2023-03-05T17:56:12.935Z,100259.63
2023-03-05T17:58:40.923Z,100263.92
2023-03-05T18:01:08.103Z,100262.71
2023-03-05T18:03:36.519Z,100264.02
2023-03-05T18:06:03.883Z,100266.27
2023-03-05T18:08:30.904Z,100268.91
2023-03-05T18:10:57.651Z,100272.14
2023-03-05T18:13:26.118Z,100275.82
2023-03-05T18:15:53.161Z,100271.45
2023-03-05T18:18:19.931Z,100274.43
2023-03-05T18:20:48.727Z,100273.19
2023-03-05T18:23:16.931Z,100272.36
2023-03-05T18:25:44.482Z,100275.58
2023-03-05T18:28:13.550Z,100277.02
2023-03-05T18:30:42.092Z,100276.40
2023-03-05T18:33:18.669Z,100279.05
2023-03-05T18:35:46.007Z,100285.88
2023-03-05T18:38:12.847Z,100284.91
2023-03-05T18:40:39.926Z,100284.84
2023-03-05T18:43:06.666Z,100286.26
2023-03-05T18:45:34.287Z,100285.36
2023-03-05T18:48:01.083Z,100284.46
2023-03-05T18:50:28.277Z,100283.30
2023-03-05T18:52:55.425Z,100286.26
2023-03-05T18:55:27.880Z,100284.71
2023-03-05T18:57:55.439Z,100285.53
2023-03-05T19:00:29.143Z,100288.60
2023-03-05T19:02:56.645Z,100288.01
2023-03-05T19:05:27.964Z,100282.71
2023-03-05T19:07:55.614Z,100282.05
2023-03-05T19:10:23.204Z,100285.30
2023-03-05T19:13:23.336Z,100287.63
2023-03-05T19:15:58.518Z,100285.62
2023-03-05T19:18:36.086Z,100290.21
2023-03-05T19:21:07.185Z,100289.47
2023-03-05T19:23:33.836Z,100293.89
2023-03-05T19:26:02.292Z,100294.40
2023-03-05T19:28:30.309Z,100294.84
2023-03-05T19:30:57.175Z,100294.70
2023-03-05T19:33:25.041Z,100292.52
2023-03-05T19:35:52.108Z,100291.23
2023-03-05T19:38:18.854Z,100291.87
2023-03-05T19:40:45.592Z,100294.58
2023-03-05T19:43:12.302Z,100299.97
2023-03-05T19:45:39.206Z,100305.27
2023-03-05T19:48:06.139Z,100312.08
2023-03-05T19:50:34.409Z,100313.43
2023-03-05T19:53:01.638Z,100314.79
2023-03-05T19:55:28.481Z,100312.99
2023-03-05T19:57:55.298Z,100314.20
2023-03-05T20:00:22.404Z,100316.91
2023-03-05T20:02:49.089Z,100316.71
2023-03-05T20:05:15.954Z,100319.85
2023-03-05T20:07:42.629Z,100316.74
2023-03-05T20:10:10.363Z,100311.64
2023-03-05T20:12:39.253Z,100313.73
2023-03-05T20:15:06.532Z,100313.65
2023-03-05T20:17:33.248Z,100320.23
2023-03-05T20:20:00.284Z,100318.64
2023-03-05T20:22:27.166Z,100314.14
2023-03-05T20:24:53.930Z,100312.83
2023-03-05T20:27:20.739Z,100315.48
2023-03-05T20:29:47.525Z,100319.84
2023-03-05T20:32:15.286Z,100319.30
2023-03-05T20:34:42.121Z,100313.13
2023-03-05T20:37:08.950Z,100307.79
2023-03-05T20:39:35.681Z,100307.27
2023-03-05T20:42:02.378Z,100310.54
2023-03-05T20:44:29.228Z,100307.41
2023-03-05T20:47:37.728Z,100307.74
2023-03-05T20:50:04.848Z,100309.04
2023-03-05T20:52:31.655Z,100309.23
2023-03-05T20:54:59.157Z,100308.37
2023-03-05T20:57:25.890Z,100308.27
2023-03-05T20:59:52.589Z,100309.90
2023-03-05T21:02:19.388Z,100306.70
2023-03-05T21:04:46.224Z,100305.34
2023-03-05T21:07:12.940Z,100304.75
2023-03-05T21:09:39.622Z,100304.73
2023-03-05T21:12:08.224Z,100309.80
2023-03-05T21:14:38.090Z,100310.94
2023-03-05T21:17:05.318Z,100310.27
2023-03-05T21:19:33.769Z,100306.35
2023-03-05T21:22:00.743Z,100304.41
2023-03-05T21:25:04.419Z,100298.21
2023-03-05T21:27:36.025Z,100297.48
2023-03-05T21:30:02.972Z,100295.39
2023-03-05T21:32:29.747Z,100292.52
2023-03-05T21:34:56.824Z,100294.05
2023-03-05T21:37:24.237Z,100292.53
2023-03-05T21:39:50.917Z,100292.34
2023-03-05T21:42:17.619Z,100290.50
2023-03-05T21:44:44.370Z,100288.62
2023-03-05T21:47:11.093Z,100281.88
2023-03-05T21:49:37.798Z,100278.39
2023-03-05T21:52:11.900Z,100274.20
2023-03-05T21:54:39.888Z,100277.81
2023-03-05T21:57:08.946Z,100274.39
2023-03-05T21:59:35.711Z,100273.48
2023-03-05T22:02:02.390Z,100271.38
2023-03-05T22:04:29.038Z,100273.53
2023-03-05T22:06:56.769Z,100275.14
2023-03-05T22:09:23.430Z,100272.86
2023-03-05T22:11:50.105Z,100272.67
2023-03-05T22:14:17.680Z,100271.67
2023-03-05T22:16:44.910Z,100266.98
2023-03-05T22:19:11.725Z,100262.35
2023-03-05T22:21:38.351Z,100265.40
2023-03-05T22:24:05.168Z,100260.33
2023-03-05T22:26:37.878Z,100262.73
2023-03-05T22:29:06.338Z,100262.59
2023-03-05T22:31:33.065Z,100259.05
2023-03-05T22:33:59.798Z,100254.74
2023-03-05T22:36:26.484Z,100247.77
2023-03-05T22:38:53.367Z,100245.23
2023-03-05T22:41:21.188Z,100248.29
2023-03-05T22:43:49.866Z,100252.98
2023-03-05T22:46:23.153Z,100256.27
2023-03-05T22:48:51.000Z,100258.23
2023-03-05T22:51:18.786Z,100253.16
2023-03-05T22:53:46.306Z,100255.50
2023-03-05T22:56:16.171Z,100255.05
2023-03-05T22:58:43.326Z,100259.12
2023-03-05T23:01:21.876Z,100254.71
2023-03-05T23:04:12.132Z,100260.17
2023-03-05T23:06:59.429Z,100253.60
2023-03-05T23:09:26.273Z,100251.09
2023-03-05T23:11:52.944Z,100251.02
2023-03-05T23:14:19.603Z,100252.70
2023-03-05T23:16:46.315Z,100250.02
2023-03-05T23:19:13.075Z,100250.44
2023-03-05T23:21:39.738Z,100250.00
2023-03-05T23:24:07.082Z,100246.17
2023-03-05T23:26:33.799Z,100245.77
2023-03-05T23:29:00.585Z,100240.70
2023-03-05T23:31:27.257Z,100238.30
2023-03-05T23:33:54.003Z,100235.87
2023-03-05T23:36:24.635Z,100234.53
2023-03-05T23:38:57.623Z,100233.66
2023-03-05T23:41:24.455Z,100234.58
2023-03-05T23:43:51.058Z,100237.48
2023-03-05T23:46:17.840Z,100241.55
2023-03-05T23:48:44.565Z,100244.27
2023-03-05T23:51:11.492Z,100242.52
2023-03-05T23:53:38.178Z,100242.73
2023-03-05T23:56:13.667Z,100238.41
2023-03-05T23:58:40.304Z,100239.92
